createdAt,value
2023-02-19T00:01:32.162Z,8.14
2023-02-19T00:04:03.889Z,8.14
2023-02-19T00:06:32.500Z,8.08
2023-02-19T00:08:59.758Z,8.10
2023-02-19T00:11:30.138Z,8.02
2023-02-19T00:13:59.433Z,8.06
2023-02-19T00:16:38.224Z,7.97
2023-02-19T00:19:08.434Z,8.06
2023-02-19T00:21:35.526Z,8.07
2023-02-19T00:24:05.575Z,8.06
2023-02-19T00:26:33.495Z,8.05
2023-02-19T00:29:01.633Z,8.04
2023-02-19T00:31:32.693Z,8.03
2023-02-19T00:34:04.603Z,8.01
2023-02-19T00:36:36.092Z,8.01
2023-02-19T00:39:04.545Z,8.01
2023-02-19T00:41:31.930Z,8.00
2023-02-19T00:44:05.662Z,8.00
2023-02-19T00:46:36.408Z,8.01
2023-02-19T00:49:05.361Z,8.01
2023-02-19T00:51:37.867Z,8.02
2023-02-19T00:54:05.848Z,8.02
2023-02-19T00:56:33.313Z,8.01
2023-02-19T00:59:00.937Z,8.01
2023-02-19T01:01:28.010Z,7.99
2023-02-19T01:03:55.041Z,8.00
2023-02-19T01:06:22.525Z,8.00
2023-02-19T01:08:49.905Z,7.99
2023-02-19T01:11:17.626Z,8.04
2023-02-19T01:13:44.941Z,8.05
2023-02-19T01:16:22.211Z,8.04
2023-02-19T01:18:49.260Z,8.06
2023-02-19T01:21:23.323Z,8.05
2023-02-19T01:23:51.507Z,8.07
2023-02-19T01:26:22.271Z,8.05
2023-02-19T01:28:49.485Z,8.08
2023-02-19T01:31:19.735Z,8.10
2023-02-19T01:33:49.991Z,8.05
2023-02-19T01:36:17.114Z,8.09
2023-02-19T01:38:44.612Z,8.08
2023-02-19T01:41:21.557Z,8.08
2023-02-19T01:44:11.365Z,8.09
2023-02-19T01:46:43.438Z,8.09
2023-02-19T01:49:23.295Z,8.11
2023-02-19T01:52:08.235Z,8.10
2023-02-19T01:54:37.372Z,8.11
2023-02-19T01:57:13.956Z,8.14
2023-02-19T01:59:41.283Z,8.14
2023-02-19T02:02:08.817Z,8.16
2023-02-19T02:04:36.024Z,8.17
2023-02-19T02:07:24.684Z,8.18
2023-02-19T02:10:10.922Z,8.18
2023-02-19T02:12:37.789Z,8.19
2023-02-19T02:15:05.275Z,8.14
2023-02-19T02:17:59.722Z,8.21
2023-02-19T02:21:27.732Z,8.20
2023-02-19T02:24:46.159Z,8.19
2023-02-19T02:27:31.046Z,8.16
2023-02-19T02:30:24.008Z,8.17
2023-02-19T02:33:16.700Z,8.15
2023-02-19T02:36:16.679Z,8.15
2023-02-19T02:38:46.459Z,8.15
2023-02-19T02:41:15.574Z,8.14
2023-02-19T02:43:42.701Z,8.13
2023-02-19T02:46:17.941Z,8.10
2023-02-19T02:48:54.006Z,8.14
2023-02-19T02:51:34.830Z,8.14
2023-02-19T02:54:35.615Z,8.14
2023-02-19T02:57:09.621Z,8.13
2023-02-19T02:59:44.032Z,8.11
2023-02-19T03:02:19.886Z,8.14
2023-02-19T03:05:11.203Z,8.14
2023-02-19T03:07:51.038Z,8.13
2023-02-19T03:10:26.278Z,8.14
2023-02-19T03:13:15.059Z,8.15
2023-02-19T03:16:21.450Z,8.15
2023-02-19T03:19:12.627Z,8.14
2023-02-19T03:21:43.740Z,8.15
2023-02-19T03:24:31.396Z,8.14
2023-02-19T03:27:02.245Z,8.09
2023-02-19T03:29:38.023Z,8.13
2023-02-19T03:32:21.202Z,8.15
2023-02-19T03:35:01.582Z,8.15
2023-02-19T03:38:10.313Z,8.10
2023-02-19T03:40:53.878Z,8.11
2023-02-19T03:43:36.071Z,8.18
2023-02-19T03:46:23.183Z,8.18
2023-02-19T03:49:01.153Z,8.14
2023-02-19T03:51:39.229Z,8.18
2023-02-19T03:54:23.821Z,8.20
2023-02-19T03:57:25.889Z,8.21
2023-02-19T04:00:13.460Z,8.23
2023-02-19T04:02:57.287Z,8.23
2023-02-19T04:05:30.021Z,8.18
2023-02-19T04:08:09.428Z,8.18
2023-02-19T04:10:43.137Z,8.28
2023-02-19T04:13:33.141Z,8.24
2023-02-19T04:16:07.465Z,8.30
2023-02-19T04:18:39.553Z,8.28
2023-02-19T04:21:08.210Z,8.32
2023-02-19T04:23:42.548Z,8.28
2023-02-19T04:26:10.849Z,8.31
2023-02-19T04:28:38.618Z,8.23
2023-02-19T04:31:06.129Z,8.30
2023-02-19T04:33:33.002Z,8.31
2023-02-19T04:35:59.894Z,8.29
2023-02-19T04:38:26.843Z,8.28
2023-02-19T04:40:53.735Z,8.28
2023-02-19T04:43:20.619Z,8.28
2023-02-19T04:45:47.513Z,8.28
2023-02-19T04:48:14.870Z,8.26
2023-02-19T04:50:41.835Z,8.24
2023-02-19T04:53:08.775Z,8.24
2023-02-19T04:55:39.641Z,8.20
2023-02-19T04:58:06.525Z,8.19
2023-02-19T05:00:34.089Z,8.18
2023-02-19T05:03:01.461Z,8.18
2023-02-19T05:05:28.461Z,8.15
2023-02-19T05:07:55.344Z,8.15
2023-02-19T05:10:22.276Z,8.15
2023-02-19T05:12:49.172Z,8.13
2023-02-19T05:15:16.255Z,8.09
2023-02-19T05:17:43.131Z,8.14
2023-02-19T05:20:10.310Z,8.14
2023-02-19T05:22:37.262Z,8.13
2023-02-19T05:25:04.550Z,8.13
2023-02-19T05:27:32.191Z,8.11
2023-02-19T05:29:59.382Z,8.13
2023-02-19T05:32:26.372Z,8.12
2023-02-19T05:34:53.283Z,8.11
2023-02-19T05:37:20.167Z,8.11
2023-02-19T05:39:48.579Z,8.10
2023-02-19T05:42:15.794Z,8.09
2023-02-19T05:44:42.901Z,7.90
2023-02-19T05:47:09.824Z,8.00
2023-02-19T05:49:36.816Z,8.04
2023-02-19T05:52:04.395Z,8.02
2023-02-19T05:54:32.048Z,8.00
2023-02-19T05:56:58.965Z,7.99
2023-02-19T05:59:27.219Z,7.97
2023-02-19T06:01:55.303Z,7.95
2023-02-19T06:04:23.379Z,7.92
2023-02-19T06:06:50.426Z,7.89
2023-02-19T06:09:17.413Z,7.87
2023-02-19T06:11:44.407Z,7.82
2023-02-19T06:14:14.150Z,7.82
2023-02-19T06:16:41.666Z,7.80
2023-02-19T06:19:08.724Z,7.78
2023-02-19T06:21:35.759Z,7.78
2023-02-19T06:24:07.806Z,7.72
2023-02-19T06:26:35.010Z,7.74
2023-02-19T06:29:01.889Z,7.69
2023-02-19T06:31:29.046Z,7.71
2023-02-19T06:33:56.011Z,7.69
2023-02-19T06:36:23.477Z,7.67
2023-02-19T06:38:51.197Z,7.68
2023-02-19T06:41:19.010Z,7.65
2023-02-19T06:43:46.566Z,7.64
2023-02-19T06:46:13.840Z,7.62
2023-02-19T06:48:42.808Z,7.60
2023-02-19T06:51:15.182Z,7.60
2023-02-19T06:53:42.175Z,7.60
2023-02-19T06:56:33.286Z,7.56
2023-02-19T06:59:03.182Z,7.58
2023-02-19T07:01:32.350Z,7.58
2023-02-19T07:03:59.411Z,7.60
2023-02-19T07:06:27.560Z,7.62
2023-02-19T07:08:57.271Z,7.62
2023-02-19T07:11:25.038Z,7.62
2023-02-19T07:13:56.686Z,7.63
2023-02-19T07:16:23.664Z,7.63
2023-02-19T07:18:50.793Z,7.64
2023-02-19T07:21:18.523Z,7.65
2023-02-19T07:23:45.909Z,7.66
2023-02-19T07:26:16.434Z,7.67
2023-02-19T07:28:44.885Z,7.70
2023-02-19T07:31:12.859Z,7.72
2023-02-19T07:33:39.964Z,7.73
2023-02-19T07:36:08.466Z,7.74
2023-02-19T07:38:35.392Z,7.74
2023-02-19T07:41:05.531Z,7.74
2023-02-19T07:43:35.647Z,7.74
2023-02-19T07:46:08.245Z,7.71
2023-02-19T07:48:36.909Z,7.72
2023-02-19T07:51:05.792Z,7.78
2023-02-19T07:53:34.907Z,7.81
2023-02-19T07:56:07.502Z,7.81
2023-02-19T07:58:34.991Z,7.81
2023-02-19T08:01:17.914Z,7.83
2023-02-19T08:03:45.921Z,7.81
2023-02-19T08:06:13.078Z,7.86
2023-02-19T08:08:40.589Z,7.86
2023-02-19T08:11:26.813Z,7.91
2023-02-19T08:13:53.989Z,7.92
2023-02-19T08:16:36.893Z,7.95
2023-02-19T08:19:09.295Z,7.98
2023-02-19T08:21:36.215Z,7.99
2023-02-19T08:24:03.128Z,8.01
2023-02-19T08:26:30.255Z,8.05
2023-02-19T08:28:58.950Z,8.06
2023-02-19T08:31:26.016Z,8.09
2023-02-19T08:33:53.137Z,8.10
2023-02-19T08:36:20.035Z,8.13
2023-02-19T08:38:46.970Z,8.16
2023-02-19T08:41:14.927Z,8.15
2023-02-19T08:43:42.905Z,8.16
2023-02-19T08:46:11.645Z,8.23
2023-02-19T08:48:39.970Z,8.28
2023-02-19T08:51:10.847Z,8.31
2023-02-19T08:53:40.410Z,8.37
2023-02-19T08:56:10.594Z,8.39
2023-02-19T08:58:38.007Z,8.44
2023-02-19T09:01:13.596Z,8.48
2023-02-19T09:03:41.552Z,8.52
2023-02-19T09:06:14.128Z,8.54
2023-02-19T09:08:40.998Z,8.59
2023-02-19T09:11:07.907Z,8.63
2023-02-19T09:13:34.989Z,8.66
2023-02-19T09:16:04.595Z,8.71
2023-02-19T09:18:31.631Z,8.75
2023-02-19T09:21:04.582Z,8.75
2023-02-19T09:23:36.523Z,8.78
2023-02-19T09:26:07.548Z,8.82
2023-02-19T09:28:34.568Z,8.89
2023-02-19T09:31:07.099Z,8.87
2023-02-19T09:33:34.443Z,8.93
2023-02-19T09:36:01.826Z,8.93
2023-02-19T09:38:30.244Z,8.95
2023-02-19T09:40:59.217Z,8.96
2023-02-19T09:43:29.010Z,8.95
2023-02-19T09:46:06.671Z,8.97
2023-02-19T09:48:33.592Z,9.01
2023-02-19T09:51:01.727Z,9.04
2023-02-19T09:53:40.239Z,9.07
2023-02-19T09:56:07.989Z,9.11
2023-02-19T09:58:47.465Z,9.11
2023-02-19T10:01:14.918Z,9.13
2023-02-19T10:03:47.059Z,9.14
2023-02-19T10:06:26.744Z,9.18
2023-02-19T10:09:21.552Z,9.21
2023-02-19T10:11:49.663Z,9.36
2023-02-19T10:14:38.743Z,9.46
2023-02-19T10:17:07.107Z,9.53
2023-02-19T10:19:36.278Z,9.58
2023-02-19T10:22:04.337Z,9.58
2023-02-19T10:24:31.917Z,9.62
2023-02-19T10:26:58.878Z,9.65
2023-02-19T10:29:27.240Z,9.67
2023-02-19T10:32:22.874Z,9.70
2023-02-19T10:35:16.080Z,9.69
2023-02-19T10:37:49.454Z,9.71
2023-02-19T10:40:22.264Z,9.77
2023-02-19T10:43:02.681Z,9.80
2023-02-19T10:45:41.334Z,9.89
2023-02-19T10:48:25.246Z,9.89
2023-02-19T10:50:58.246Z,9.82
2023-02-19T10:53:47.204Z,9.90
2023-02-19T10:56:25.694Z,9.92
2023-02-19T10:58:53.047Z,9.93
2023-02-19T11:01:23.441Z,10.02
2023-02-19T11:04:16.893Z,10.05
2023-02-19T11:06:44.956Z,10.12
2023-02-19T11:09:28.224Z,10.17
2023-02-19T11:11:56.611Z,10.15
2023-02-19T11:14:25.758Z,10.21
2023-02-19T11:17:01.290Z,10.25
2023-02-19T11:19:45.059Z,10.32
2023-02-19T11:22:32.948Z,10.46
2023-02-19T11:25:14.614Z,10.55
2023-02-19T11:28:21.755Z,10.56
2023-02-19T11:30:49.144Z,10.58
2023-02-19T11:33:24.653Z,10.59
2023-02-19T11:36:17.952Z,10.62
2023-02-19T11:38:44.845Z,10.67
2023-02-19T11:41:41.488Z,10.67
2023-02-19T11:44:32.609Z,10.75
2023-02-19T11:47:41.331Z,10.79
2023-02-19T11:50:38.058Z,10.84
2023-02-19T11:53:37.253Z,10.89
2023-02-19T11:56:21.838Z,10.97
2023-02-19T11:59:01.230Z,11.04
2023-02-19T12:02:03.813Z,11.12
2023-02-19T12:05:12.531Z,11.16
2023-02-19T12:08:30.383Z,11.22
2023-02-19T12:11:39.610Z,11.24
2023-02-19T12:14:20.380Z,11.26
2023-02-19T12:17:26.935Z,11.29
2023-02-19T12:20:09.967Z,11.29
2023-02-19T12:23:19.056Z,11.27
2023-02-19T12:26:13.218Z,11.25
2023-02-19T12:28:56.018Z,11.25
2023-02-19T12:31:47.262Z,11.27
2023-02-19T12:34:25.654Z,11.31
2023-02-19T12:36:59.564Z,11.28
2023-02-19T12:40:27.379Z,11.22
2023-02-19T12:43:14.124Z,11.15
2023-02-19T12:45:49.380Z,11.14
2023-02-19T12:48:39.673Z,11.06
2023-02-19T12:51:19.416Z,11.00
2023-02-19T12:53:59.013Z,11.04
2023-02-19T12:56:49.407Z,11.08
2023-02-19T12:59:31.474Z,11.11
2023-02-19T13:02:42.128Z,11.12
2023-02-19T13:05:35.436Z,11.09
2023-02-19T13:08:35.605Z,11.06
2023-02-19T13:11:36.710Z,10.98
2023-02-19T13:14:28.654Z,10.94
2023-02-19T13:17:08.670Z,10.87
2023-02-19T13:19:38.189Z,10.81
2023-02-19T13:22:45.353Z,10.80
2023-02-19T13:25:13.955Z,10.79
2023-02-19T13:27:55.926Z,10.76
2023-02-19T13:30:34.118Z,10.76
2023-02-19T13:33:24.767Z,10.70
2023-02-19T13:36:16.479Z,10.66
2023-02-19T13:38:47.341Z,10.67
2023-02-19T13:41:51.675Z,10.66
2023-02-19T13:44:26.250Z,10.65
2023-02-19T13:46:53.287Z,10.64
2023-02-19T13:49:28.803Z,10.63
2023-02-19T13:52:24.077Z,10.64
2023-02-19T13:54:51.366Z,10.63
2023-02-19T13:57:18.157Z,10.61
2023-02-19T13:59:46.370Z,10.62
2023-02-19T14:02:20.474Z,10.60
2023-02-19T14:05:04.383Z,10.61
2023-02-19T14:07:48.524Z,10.56
2023-02-19T14:10:54.317Z,10.50
2023-02-19T14:13:52.054Z,10.49
2023-02-19T14:16:39.770Z,10.50
2023-02-19T14:19:42.991Z,10.50
2023-02-19T14:22:47.060Z,10.50
2023-02-19T14:25:38.142Z,10.47
2023-02-19T14:28:15.419Z,10.44
2023-02-19T14:31:18.820Z,10.38
2023-02-19T14:34:04.301Z,10.36
2023-02-19T14:37:06.827Z,10.34
2023-02-19T14:39:38.066Z,10.34
2023-02-19T14:42:24.551Z,10.32
2023-02-19T14:44:57.233Z,10.30
2023-02-19T14:47:27.853Z,10.33
2023-02-19T14:50:29.591Z,10.31
2023-02-19T14:53:01.242Z,10.29
2023-02-19T14:55:36.191Z,10.25
2023-02-19T14:58:30.851Z,10.23
2023-02-19T15:00:57.904Z,10.26
2023-02-19T15:03:34.113Z,10.27
2023-02-19T15:06:08.659Z,10.28
2023-02-19T15:08:41.095Z,10.30
2023-02-19T15:11:19.338Z,10.30
2023-02-19T15:13:58.820Z,10.32
2023-02-19T15:16:27.319Z,10.32
2023-02-19T15:18:55.844Z,10.32
2023-02-19T15:21:26.873Z,10.31
2023-02-19T15:23:57.578Z,10.31
2023-02-19T15:26:40.656Z,10.22
2023-02-19T15:29:17.487Z,10.21
2023-02-19T15:31:57.685Z,10.22
2023-02-19T15:34:30.387Z,10.20
2023-02-19T15:37:01.782Z,10.12
2023-02-19T15:39:38.832Z,10.11
2023-02-19T15:42:08.086Z,10.09
2023-02-19T15:45:09.440Z,10.04
2023-02-19T15:47:53.099Z,10.00
2023-02-19T15:50:30.502Z,9.95
2023-02-19T15:53:14.293Z,9.93
2023-02-19T15:56:04.629Z,9.88
2023-02-19T15:58:50.283Z,9.86
2023-02-19T16:01:27.724Z,9.83
2023-02-19T16:03:55.465Z,9.78
2023-02-19T16:06:25.106Z,9.75
2023-02-19T16:09:01.913Z,9.74
2023-02-19T16:11:47.982Z,9.71
2023-02-19T16:14:34.061Z,9.65
2023-02-19T16:17:10.110Z,9.60
2023-02-19T16:19:48.882Z,9.56
2023-02-19T16:22:31.451Z,9.50
2023-02-19T16:25:05.200Z,9.46
2023-02-19T16:27:42.644Z,9.38
2023-02-19T16:30:28.064Z,9.36
2023-02-19T16:33:37.260Z,9.30
2023-02-19T16:36:19.765Z,9.20
2023-02-19T16:39:08.291Z,9.19
2023-02-19T16:41:40.909Z,9.14
2023-02-19T16:44:27.809Z,9.09
2023-02-19T16:47:03.755Z,9.05
2023-02-19T16:49:31.177Z,9.03
2023-02-19T16:52:04.156Z,8.99
2023-02-19T16:54:31.319Z,8.97
2023-02-19T16:56:58.237Z,8.89
2023-02-19T16:59:25.137Z,8.91
2023-02-19T17:01:52.081Z,8.86
2023-02-19T17:04:19.165Z,8.85
2023-02-19T17:06:47.437Z,8.77
2023-02-19T17:09:14.330Z,8.76
2023-02-19T17:11:41.350Z,8.67
2023-02-19T17:14:09.226Z,8.68
2023-02-19T17:16:39.990Z,8.57
2023-02-19T17:19:14.992Z,8.60
2023-02-19T17:21:42.195Z,8.53
2023-02-19T17:24:09.169Z,8.51
2023-02-19T17:26:36.063Z,8.47
2023-02-19T17:29:06.409Z,8.42
2023-02-19T17:31:34.076Z,8.34
2023-02-19T17:34:01.309Z,8.37
2023-02-19T17:36:32.476Z,8.32
2023-02-19T17:39:00.899Z,8.29
2023-02-19T17:41:28.419Z,8.25
2023-02-19T17:43:55.647Z,8.20
2023-02-19T17:46:25.831Z,8.19
2023-02-19T17:48:53.708Z,8.16
2023-02-19T17:51:20.965Z,8.13
2023-02-19T17:53:47.906Z,8.10
2023-02-19T17:56:22.018Z,8.09
2023-02-19T17:58:49.022Z,8.08
2023-02-19T18:01:16.107Z,8.06
2023-02-19T18:03:43.556Z,8.04
2023-02-19T18:06:11.230Z,7.97
2023-02-19T18:08:38.270Z,7.99
2023-02-19T18:11:07.409Z,7.97
2023-02-19T18:13:34.316Z,7.94
2023-02-19T18:16:01.202Z,7.92
2023-02-19T18:18:28.088Z,7.89
2023-02-19T18:20:54.982Z,7.88
2023-02-19T18:23:21.918Z,7.86
2023-02-19T18:25:48.888Z,7.85
2023-02-19T18:28:16.653Z,7.79
2023-02-19T18:30:43.664Z,7.83
2023-02-19T18:33:13.167Z,7.81
2023-02-19T18:35:40.122Z,7.77
2023-02-19T18:38:07.329Z,7.77
2023-02-19T18:40:34.201Z,7.75
2023-02-19T18:43:01.151Z,7.73
2023-02-19T18:45:29.588Z,7.72
2023-02-19T18:47:56.507Z,7.63
2023-02-19T18:50:23.452Z,7.67
2023-02-19T18:52:50.389Z,7.66
2023-02-19T18:55:17.286Z,7.64
2023-02-19T18:57:44.330Z,7.65
2023-02-19T19:00:23.657Z,7.64
2023-02-19T19:02:51.424Z,7.63
2023-02-19T19:05:22.809Z,7.61
2023-02-19T19:07:55.344Z,7.60
2023-02-19T19:10:23.270Z,7.59
2023-02-19T19:12:50.824Z,7.56
2023-02-19T19:15:18.808Z,7.55
2023-02-19T19:17:47.441Z,7.54
2023-02-19T19:20:17.337Z,7.51
2023-02-19T19:22:44.326Z,7.50
2023-02-19T19:25:11.300Z,7.49
2023-02-19T19:27:38.721Z,7.48
2023-02-19T19:30:06.824Z,7.48
2023-02-19T19:32:34.120Z,7.47
2023-02-19T19:35:01.031Z,7.47
2023-02-19T19:37:29.228Z,7.48
2023-02-19T19:39:56.538Z,7.47
2023-02-19T19:42:23.927Z,7.47
2023-02-19T19:44:50.844Z,7.46
2023-02-19T19:47:17.746Z,7.46
2023-02-19T19:49:47.228Z,7.46
2023-02-19T19:52:14.903Z,7.46
2023-02-19T19:54:44.894Z,7.46
2023-02-19T19:57:12.381Z,7.42
2023-02-19T19:59:39.534Z,7.47
2023-02-19T20:02:07.725Z,7.35
2023-02-19T20:04:34.803Z,7.46
2023-02-19T20:07:02.089Z,7.48
2023-02-19T20:09:29.103Z,7.47
2023-02-19T20:11:56.602Z,7.49
2023-02-19T20:14:25.135Z,7.51
2023-02-19T20:16:54.401Z,7.47
2023-02-19T20:19:21.894Z,7.47
2023-02-19T20:21:52.061Z,7.45
2023-02-19T20:24:24.168Z,7.51
2023-02-19T20:26:53.634Z,7.51
2023-02-19T20:29:20.794Z,7.50
2023-02-19T20:31:50.027Z,7.48
2023-02-19T20:34:17.972Z,7.48
2023-02-19T20:36:47.298Z,7.48
2023-02-19T20:39:16.499Z,7.47
2023-02-19T20:41:51.470Z,7.51
2023-02-19T20:44:19.305Z,7.54
2023-02-19T20:46:49.356Z,7.55
2023-02-19T20:49:19.358Z,7.58
2023-02-19T20:51:58.201Z,7.60
2023-02-19T20:54:28.871Z,7.60
2023-02-19T20:56:58.654Z,7.63
2023-02-19T20:59:31.248Z,7.63
2023-02-19T21:01:59.154Z,7.64
2023-02-19T21:04:26.250Z,7.64
2023-02-19T21:06:53.206Z,7.65
2023-02-19T21:09:21.826Z,7.66
2023-02-19T21:11:49.403Z,7.62
2023-02-19T21:14:16.923Z,7.68
2023-02-19T21:16:43.896Z,7.68
2023-02-19T21:19:10.797Z,7.71
2023-02-19T21:21:39.356Z,7.72
2023-02-19T21:24:06.663Z,7.74
2023-02-19T21:26:36.394Z,7.75
2023-02-19T21:29:04.633Z,7.73
2023-02-19T21:31:41.124Z,7.78
2023-02-19T21:34:10.862Z,7.78
2023-02-19T21:36:38.190Z,7.79
2023-02-19T21:39:07.777Z,7.79
2023-02-19T21:41:34.737Z,7.79
2023-02-19T21:44:01.671Z,7.74
2023-02-19T21:46:28.647Z,7.77
2023-02-19T21:48:56.813Z,7.75
2023-02-19T21:51:39.928Z,7.72
2023-02-19T21:54:08.042Z,7.70
2023-02-19T21:56:36.556Z,7.68
2023-02-19T21:59:04.155Z,7.63
2023-02-19T22:01:34.710Z,7.62
2023-02-19T22:04:02.054Z,7.59
2023-02-19T22:06:31.005Z,7.58
2023-02-19T22:08:58.649Z,7.55
2023-02-19T22:11:25.766Z,7.49
2023-02-19T22:13:53.005Z,7.51
2023-02-19T22:16:20.413Z,7.46
2023-02-19T22:18:49.943Z,7.46
2023-02-19T22:21:17.447Z,7.44
2023-02-19T22:23:48.981Z,7.42
2023-02-19T22:26:34.736Z,7.40
2023-02-19T22:29:06.923Z,7.36
2023-02-19T22:31:34.900Z,7.35
2023-02-19T22:34:02.146Z,7.33
2023-02-19T22:36:31.416Z,7.31
2023-02-19T22:38:58.333Z,7.30
2023-02-19T22:41:25.556Z,7.22
2023-02-19T22:43:56.358Z,7.26
2023-02-19T22:46:26.074Z,7.24
2023-02-19T22:48:52.997Z,7.22
2023-02-19T22:51:22.974Z,7.22
2023-02-19T22:53:55.436Z,7.20
2023-02-19T22:56:25.573Z,7.18
2023-02-19T22:58:53.909Z,7.17
2023-02-19T23:01:21.501Z,7.16
2023-02-19T23:04:02.934Z,7.09
2023-02-19T23:06:33.341Z,7.13
2023-02-19T23:09:06.204Z,7.13
2023-02-19T23:11:38.913Z,7.11
2023-02-19T23:14:07.149Z,7.12
2023-02-19T23:16:36.569Z,7.12
2023-02-19T23:19:11.335Z,7.11
2023-02-19T23:21:40.092Z,7.12
2023-02-19T23:24:07.665Z,7.07
2023-02-19T23:26:34.895Z,7.10
2023-02-19T23:29:02.198Z,7.06
2023-02-19T23:31:29.172Z,7.09
2023-02-19T23:33:56.403Z,7.10
2023-02-19T23:36:23.867Z,7.09
2023-02-19T23:38:50.799Z,7.10
2023-02-19T23:41:18.565Z,7.09
2023-02-19T23:43:45.750Z,7.09
2023-02-19T23:46:17.908Z,7.09
2023-02-19T23:48:46.245Z,7.07
2023-02-19T23:51:13.596Z,7.08
2023-02-19T23:53:40.469Z,7.08
2023-02-19T23:56:07.843Z,7.06
2023-02-19T23:58:34.748Z,7.08
